Flugplatz Sprossen

Für EDCH sind keine METAR/TAF Berichte vorhanden.
Es werden die Flugwettermeldungen vom Flugplatz Altenburg-Nobitz in 20 km Entfernung angezeigt.

Bericht für EDAC

vom 23.02. um 23:20 UTC

Wind 13 kt aus 290°

Sichtweite 10 km oder mehr

gering bewölkt in 4000 ft

aufgelockert bewölkt in 4800 ft

Temperatur 5.0°C

Taupunkt 0.0°C

Luftfeuchtigkeit 70%

Luftdruck 1017 hPa

EDAC 232320Z AUTO 29013KT 9999 // FEW040/// SCT048/// 05/M00 Q1017

Prognose für EDAC

vom 23.02. um 00:00 UTC

Am 23.02. zwischen 00:00 UTC und 00:00 UTC

Wind 25 kt aus 230° in Böen 45 kt

Sichtweite 10 km oder mehr

aufgebrochene Bewölkung in 3000 ft


Am 23.02. zwischen 00:00 und 00:00 UTC übergehend zu

Wind 25 kt aus 300° in Böen 45 kt

Sichtweite 10 km oder mehr

aufgebrochene Bewölkung in 3000 ft


Am 23.02. zwischen 00:00 und 00:00 UTC übergehend zu

Wind 15 kt aus 290° in Böen 30 kt

Sichtweite 10 km oder mehr

aufgebrochene Bewölkung in 3000 ft

TAF EDAC 231400Z 2315/2324 23025G45KT 9999 BKN030 BECMG 2318/2321 30025G45KT BECMG 2321/2324 29015G30KT
Impressum